Time;durP1;ratioP1;P1;durP2;ratioP2;P2;SDS_P1;SDS_P2;PMS_P1;PMS_P2;Temp;Humidity;BMP_temperature;BMP_pressure;BME280_temperature;BME280_humidity;BME280_pressure;Samples;Min_cycle;Max_cycle;Signal;HPM_P1;HPM_P2
2021/07/12 00:00:22;;;;;;;12.88;6.00;;;;;;;;;;5056220;28;20075;-82
2021/07/12 00:02:49;;;;;;;9.00;5.35;;;;;;;;;;5031171;28;20129;-81
2021/07/12 00:05:15;;;;;;;8.77;5.43;;;;;;;;;;5030304;28;20038;-82
2021/07/12 00:07:41;;;;;;;11.23;6.13;;;;;;;;;;5031501;28;20026;-82
2021/07/12 00:10:08;;;;;;;8.13;5.18;;;;;;;;;;5030877;28;20368;-81
2021/07/12 00:12:34;;;;;;;10.77;5.07;;;;;;;;;;5040392;28;20115;-82
2021/07/12 00:15:00;;;;;;;10.98;5.60;;;;;;;;;;5048588;28;20474;-80
2021/07/12 00:17:26;;;;;;;8.27;5.18;;;;;;;;;;5050293;28;20056;-82
2021/07/12 00:19:52;;;;;;;11.77;4.90;;;;;;;;;;5032205;28;20033;-82
2021/07/12 00:22:18;;;;;;;11.38;5.53;;;;;;;;;;5030767;28;20069;-80
2021/07/12 00:24:44;;;;;;;9.70;4.70;;;;;;;;;;5032412;28;20191;-82
2021/07/12 00:27:10;;;;;;;6.95;4.90;;;;;;;;;;5033317;28;20049;-80
2021/07/12 00:29:36;;;;;;;11.32;5.13;;;;;;;;;;5050236;28;20520;-82
2021/07/12 00:32:02;;;;;;;8.85;5.15;;;;;;;;;;5047068;28;20028;-82
2021/07/12 00:34:28;;;;;;;7.22;4.88;;;;;;;;;;5033996;28;20198;-81
2021/07/12 00:36:54;;;;;;;9.57;4.85;;;;;;;;;;5030750;28;20638;-81
2021/07/12 00:39:20;;;;;;;8.00;5.53;;;;;;;;;;5042916;28;20039;-80
2021/07/12 00:41:46;;;;;;;12.90;5.50;;;;;;;;;;5030393;28;20108;-82
2021/07/12 00:44:12;;;;;;;11.88;5.25;;;;;;;;;;5029657;28;20119;-80
2021/07/12 00:46:38;;;;;;;8.52;5.13;;;;;;;;;;5049687;28;20123;-81
2021/07/12 00:49:04;;;;;;;10.20;5.18;;;;;;;;;;5063582;28;20032;-82
2021/07/12 00:51:30;;;;;;;7.90;4.47;;;;;;;;;;5044544;28;20029;-82
2021/07/12 00:53:56;;;;;;;6.72;4.63;;;;;;;;;;5037416;28;20492;-82
2021/07/12 00:56:22;;;;;;;11.05;4.72;;;;;;;;;;5034243;28;20029;-82
2021/07/12 00:58:48;;;;;;;8.82;4.70;;;;;;;;;;5031303;28;20038;-82
2021/07/12 01:01:14;;;;;;;7.10;4.93;;;;;;;;;;5032306;28;20112;-82
2021/07/12 01:03:40;;;;;;;7.30;4.70;;;;;;;;;;5029904;28;20124;-81
2021/07/12 01:06:06;;;;;;;7.40;4.40;;;;;;;;;;5038185;28;20032;-81
2021/07/12 01:08:33;;;;;;;8.63;5.25;;;;;;;;;;5052249;28;20150;-81
2021/07/12 01:11:04;;;;;;;10.25;5.40;;;;;;;;;;5040209;28;20025;-81
2021/07/12 01:13:30;;;;;;;10.63;5.80;;;;;;;;;;5044339;28;20533;-82
2021/07/12 01:16:04;;;;;;;9.63;5.32;;;;;;;;;;5029489;28;20026;-82
2021/07/12 01:18:32;;;;;;;10.60;5.78;;;;;;;;;;5040703;28;20040;-82
2021/07/12 01:21:17;;;;;;;16.33;5.43;;;;;;;;;;5069777;28;20044;-80
2021/07/12 01:23:55;;;;;;;9.25;5.03;;;;;;;;;;5038151;28;20056;-81
2021/07/12 01:26:33;;;;;;;8.65;5.22;;;;;;;;;;5032598;28;20049;-81
2021/07/12 01:29:11;;;;;;;14.65;5.30;;;;;;;;;;5050451;28;20047;-81
2021/07/12 01:31:56;;;;;;;9.65;5.28;;;;;;;;;;5062831;28;20506;-82
2021/07/12 01:34:41;;;;;;;10.00;5.22;;;;;;;;;;5031173;28;20379;-80
2021/07/12 01:37:26;;;;;;;8.82;5.32;;;;;;;;;;5037278;28;20025;-81
2021/07/12 01:39:58;;;;;;;11.65;6.10;;;;;;;;;;5046311;28;20045;-82
2021/07/12 01:42:30;;;;;;;11.52;5.60;;;;;;;;;;5057027;28;20456;-82
2021/07/12 01:44:59;;;;;;;9.70;5.80;;;;;;;;;;5065973;28;20457;-82
2021/07/12 01:47:31;;;;;;;8.70;5.85;;;;;;;;;;5068986;28;20032;-81
2021/07/12 01:50:02;;;;;;;16.58;5.97;;;;;;;;;;5037398;28;20030;-81
2021/07/12 01:52:32;;;;;;;9.77;5.63;;;;;;;;;;5061826;28;20377;-82
2021/07/12 01:55:03;;;;;;;8.27;6.20;;;;;;;;;;5036783;28;20790;-82
2021/07/12 01:57:30;;;;;;;10.20;5.50;;;;;;;;;;5030405;28;20479;-82
2021/07/12 02:00:08;;;;;;;8.80;5.63;;;;;;;;;;5045675;28;20522;-81
2021/07/12 02:02:34;;;;;;;8.75;5.25;;;;;;;;;;5029823;28;20049;-82
2021/07/12 02:05:01;;;;;;;9.93;5.78;;;;;;;;;;5040883;28;20032;-81
2021/07/12 02:07:28;;;;;;;8.52;5.80;;;;;;;;;;5035011;28;20029;-81
2021/07/12 02:09:54;;;;;;;8.63;5.70;;;;;;;;;;5040008;28;20435;-82
2021/07/12 02:12:21;;;;;;;12.43;5.90;;;;;;;;;;5028071;28;20121;-82
2021/07/12 02:14:47;;;;;;;9.87;5.70;;;;;;;;;;5031831;28;20287;-82
2021/07/12 02:17:15;;;;;;;10.55;6.00;;;;;;;;;;5028711;28;20033;-81
2021/07/12 02:19:41;;;;;;;7.43;5.05;;;;;;;;;;5040591;28;20057;-81
2021/07/12 02:22:07;;;;;;;12.10;5.07;;;;;;;;;;5037294;28;20033;-80
2021/07/12 02:24:33;;;;;;;12.30;5.05;;;;;;;;;;5045078;28;20052;-81
2021/07/12 02:27:00;;;;;;;10.05;5.30;;;;;;;;;;5044224;28;20028;-80
2021/07/12 02:29:27;;;;;;;7.68;5.20;;;;;;;;;;5055528;28;20038;-81
2021/07/12 02:31:53;;;;;;;9.85;5.60;;;;;;;;;;5033310;28;20025;-79
2021/07/12 02:34:20;;;;;;;10.73;5.22;;;;;;;;;;5032243;28;20387;-80
2021/07/12 02:36:47;;;;;;;8.00;4.45;;;;;;;;;;5033929;28;20025;-82
2021/07/12 02:39:14;;;;;;;10.50;4.80;;;;;;;;;;5043011;28;20041;-80
2021/07/12 02:41:41;;;;;;;8.85;5.03;;;;;;;;;;5035147;28;20544;-81
2021/07/12 02:44:08;;;;;;;8.03;4.90;;;;;;;;;;5038487;28;20049;-81
2021/07/12 02:46:34;;;;;;;8.02;5.38;;;;;;;;;;5034369;28;20264;-82
2021/07/12 02:49:01;;;;;;;8.80;5.07;;;;;;;;;;5035047;28;20032;-81
2021/07/12 02:51:32;;;;;;;9.88;4.68;;;;;;;;;;5035714;28;20395;-82
2021/07/12 02:53:59;;;;;;;10.20;5.90;;;;;;;;;;5048129;28;20045;-82
2021/07/12 02:56:25;;;;;;;8.48;5.07;;;;;;;;;;5036828;28;20025;-81
2021/07/12 02:58:51;;;;;;;8.35;4.97;;;;;;;;;;5037096;28;20021;-81
2021/07/12 03:01:17;;;;;;;6.90;4.90;;;;;;;;;;5041844;28;20491;-81
2021/07/12 03:03:43;;;;;;;6.63;4.85;;;;;;;;;;5043979;28;20045;-82
2021/07/12 03:06:14;;;;;;;6.88;4.88;;;;;;;;;;5046611;28;20481;-81
2021/07/12 03:08:49;;;;;;;9.23;4.95;;;;;;;;;;5051313;28;20516;-81
2021/07/12 03:11:15;;;;;;;11.10;4.90;;;;;;;;;;5037958;28;20103;-81
2021/07/12 03:13:45;;;;;;;12.77;4.80;;;;;;;;;;5036736;28;20026;-82
2021/07/12 03:16:12;;;;;;;7.60;4.43;;;;;;;;;;5033797;28;20045;-81
2021/07/12 03:18:45;;;;;;;12.13;5.03;;;;;;;;;;5031933;28;20037;-82
2021/07/12 03:21:12;;;;;;;8.05;4.85;;;;;;;;;;5048405;28;20123;-82
2021/07/12 03:23:39;;;;;;;8.65;4.68;;;;;;;;;;5051765;28;20044;-83
2021/07/12 03:26:06;;;;;;;9.57;4.63;;;;;;;;;;5035962;28;20073;-82
2021/07/12 03:28:33;;;;;;;9.20;4.50;;;;;;;;;;5032340;28;20061;-82
2021/07/12 03:30:59;;;;;;;9.70;4.57;;;;;;;;;;5053765;28;20032;-81
2021/07/12 03:33:25;;;;;;;8.57;4.88;;;;;;;;;;5036776;28;20095;-82
2021/07/12 03:35:52;;;;;;;9.63;5.53;;;;;;;;;;5046065;28;20040;-83
2021/07/12 03:38:19;;;;;;;7.78;4.82;;;;;;;;;;5042311;28;20453;-82
2021/07/12 03:40:45;;;;;;;10.18;5.22;;;;;;;;;;5035378;28;20067;-81
2021/07/12 03:43:12;;;;;;;6.47;4.28;;;;;;;;;;5031352;28;20061;-82
2021/07/12 03:45:39;;;;;;;7.72;4.60;;;;;;;;;;5032786;28;20037;-82
2021/07/12 03:48:05;;;;;;;6.57;4.85;;;;;;;;;;5035682;28;20386;-83
2021/07/12 03:50:32;;;;;;;9.83;4.20;;;;;;;;;;5044364;28;20472;-82
2021/07/12 03:53:01;;;;;;;9.20;4.55;;;;;;;;;;5041822;28;20036;-82
2021/07/12 03:55:28;;;;;;;6.65;4.70;;;;;;;;;;5060051;28;20474;-83
2021/07/12 03:57:54;;;;;;;7.15;4.82;;;;;;;;;;5050679;28;20394;-83
2021/07/12 04:00:22;;;;;;;7.30;4.88;;;;;;;;;;5048564;28;20025;-81
2021/07/12 04:02:48;;;;;;;10.68;5.57;;;;;;;;;;5032360;28;20394;-83
2021/07/12 04:05:17;;;;;;;8.40;5.43;;;;;;;;;;5031821;28;20021;-82
2021/07/12 04:07:43;;;;;;;7.90;5.03;;;;;;;;;;5034141;28;20483;-82
2021/07/12 04:10:10;;;;;;;8.32;5.40;;;;;;;;;;5035051;28;20033;-83
2021/07/12 04:12:36;;;;;;;;;;;;;;;;;;5032444;28;20087;-83
2021/07/12 04:15:03;;;;;;;8.65;4.80;;;;;;;;;;5040440;28;19908;-83
2021/07/12 04:17:29;;;;;;;9.48;4.88;;;;;;;;;;5051186;28;20041;-82
2021/07/12 04:19:56;;;;;;;7.55;4.50;;;;;;;;;;5050375;28;20113;-83
2021/07/12 04:22:23;;;;;;;6.25;4.32;;;;;;;;;;5051717;28;20031;-80
2021/07/12 04:24:50;;;;;;;6.20;4.72;;;;;;;;;;5052356;28;20025;-81
2021/07/12 04:27:16;;;;;;;6.03;4.28;;;;;;;;;;5068319;28;20438;-82
2021/07/12 04:29:42;;;;;;;7.63;4.60;;;;;;;;;;5069819;28;20046;-80
2021/07/12 04:32:08;;;;;;;10.07;4.78;;;;;;;;;;5059445;28;20021;-80
2021/07/12 04:34:34;;;;;;;10.90;4.40;;;;;;;;;;5048730;28;20062;-82
2021/07/12 04:37:00;;;;;;;8.68;4.60;;;;;;;;;;5048461;28;20020;-80
2021/07/12 04:39:26;;;;;;;8.50;4.22;;;;;;;;;;5048306;28;20052;-80
2021/07/12 04:41:53;;;;;;;7.20;4.15;;;;;;;;;;5055732;28;20036;-80
2021/07/12 04:44:20;;;;;;;5.57;4.65;;;;;;;;;;5071085;28;20045;-81
2021/07/12 04:46:46;;;;;;;9.55;4.20;;;;;;;;;;5072910;28;20016;-82
2021/07/12 04:49:12;;;;;;;7.53;4.20;;;;;;;;;;5069933;28;20170;-78
2021/07/12 04:51:38;;;;;;;11.95;4.47;;;;;;;;;;5047840;28;20044;-82
2021/07/12 04:54:05;;;;;;;8.00;4.90;;;;;;;;;;5033929;28;20109;-80
2021/07/12 04:56:31;;;;;;;9.23;4.28;;;;;;;;;;5031984;28;20363;-80
2021/07/12 04:58:57;;;;;;;12.30;4.45;;;;;;;;;;5032073;28;20037;-82
2021/07/12 05:01:24;;;;;;;7.90;4.40;;;;;;;;;;5042181;28;20028;-80
2021/07/12 05:03:50;;;;;;;5.82;4.43;;;;;;;;;;5051399;28;20068;-81
2021/07/12 05:06:16;;;;;;;8.32;4.38;;;;;;;;;;5051149;28;20446;-81
2021/07/12 05:08:42;;;;;;;10.15;4.65;;;;;;;;;;5051935;28;20064;-82
2021/07/12 05:11:08;;;;;;;9.25;4.93;;;;;;;;;;5051242;28;20128;-81
2021/07/12 05:13:35;;;;;;;9.60;4.57;;;;;;;;;;5050715;28;20372;-82
2021/07/12 05:16:02;;;;;;;10.60;4.53;;;;;;;;;;5050191;28;20065;-81
2021/07/12 05:18:28;;;;;;;7.97;4.80;;;;;;;;;;5031790;28;20263;-82
2021/07/12 05:20:56;;;;;;;9.02;4.18;;;;;;;;;;5048373;28;20453;-82
2021/07/12 05:23:22;;;;;;;9.15;4.25;;;;;;;;;;5047540;28;20037;-81
2021/07/12 05:25:48;;;;;;;6.22;4.25;;;;;;;;;;5032479;28;20030;-81
2021/07/12 05:28:14;;;;;;;8.52;4.82;;;;;;;;;;5067433;28;20387;-79
2021/07/12 05:30:40;;;;;;;14.05;4.60;;;;;;;;;;5060134;28;20041;-83
2021/07/12 05:33:07;;;;;;;9.32;4.57;;;;;;;;;;5058532;28;20092;-79
2021/07/12 05:35:33;;;;;;;7.15;4.10;;;;;;;;;;5057487;28;20040;-81
2021/07/12 05:37:59;;;;;;;8.90;4.60;;;;;;;;;;5070600;28;20031;-80
2021/07/12 05:40:25;;;;;;;6.50;4.13;;;;;;;;;;5053751;28;20033;-79
2021/07/12 05:42:51;;;;;;;7.95;4.50;;;;;;;;;;5064269;28;20048;-81
2021/07/12 05:45:17;;;;;;;9.70;4.40;;;;;;;;;;5068821;28;20025;-80
2021/07/12 05:47:43;;;;;;;5.60;4.05;;;;;;;;;;5060673;28;20074;-79
2021/07/12 05:50:10;;;;;;;8.52;4.30;;;;;;;;;;5067350;28;20044;-82
2021/07/12 05:52:37;;;;;;;8.55;4.32;;;;;;;;;;5056043;28;20060;-80
2021/07/12 05:55:04;;;;;;;7.78;4.10;;;;;;;;;;5064489;28;20039;-82
2021/07/12 05:57:30;;;;;;;10.85;4.53;;;;;;;;;;5069212;28;20032;-82
2021/07/12 05:59:56;;;;;;;9.48;4.88;;;;;;;;;;5069998;28;20037;-83
2021/07/12 06:02:22;;;;;;;9.52;4.10;;;;;;;;;;5070423;28;20113;-82
2021/07/12 06:04:48;;;;;;;8.13;4.57;;;;;;;;;;5068974;28;20040;-82
2021/07/12 06:07:14;;;;;;;7.80;4.70;;;;;;;;;;5069317;28;20580;-83
2021/07/12 06:09:40;;;;;;;10.55;5.07;;;;;;;;;;5069776;28;20056;-81
2021/07/12 06:12:06;;;;;;;10.93;4.90;;;;;;;;;;5069496;28;20024;-83
2021/07/12 06:14:32;;;;;;;14.77;4.65;;;;;;;;;;5070539;28;20046;-82
2021/07/12 06:16:58;;;;;;;8.82;3.90;;;;;;;;;;5070394;28;20589;-82
2021/07/12 06:19:24;;;;;;;6.63;3.92;;;;;;;;;;5070832;28;20025;-83
2021/07/12 06:21:50;;;;;;;9.93;4.50;;;;;;;;;;5071085;28;20041;-82
2021/07/12 06:24:16;;;;;;;7.13;4.75;;;;;;;;;;5069335;28;20399;-83
2021/07/12 06:26:42;;;;;;;10.70;4.22;;;;;;;;;;5070625;28;20371;-82
2021/07/12 06:29:08;;;;;;;6.00;4.22;;;;;;;;;;5069434;28;20393;-82
2021/07/12 06:31:36;;;;;;;10.80;4.25;;;;;;;;;;5069759;28;20049;-82
2021/07/12 06:34:02;;;;;;;5.88;4.32;;;;;;;;;;5068600;28;20033;-83
2021/07/12 06:36:28;;;;;;;8.40;4.70;;;;;;;;;;5070269;28;20030;-83
2021/07/12 06:38:54;;;;;;;7.50;4.90;;;;;;;;;;5070297;28;20436;-83
2021/07/12 06:41:20;;;;;;;12.27;5.32;;;;;;;;;;5069589;28;20029;-83
2021/07/12 06:43:46;;;;;;;12.20;4.78;;;;;;;;;;5069877;28;20036;-83
2021/07/12 06:46:12;;;;;;;12.45;4.75;;;;;;;;;;5068571;28;20282;-82
2021/07/12 06:48:38;;;;;;;6.47;4.30;;;;;;;;;;5070024;28;20370;-82
2021/07/12 06:51:04;;;;;;;9.07;4.28;;;;;;;;;;5069801;28;20475;-83
2021/07/12 06:53:30;;;;;;;10.63;6.00;;;;;;;;;;5069362;28;20031;-83
2021/07/12 06:55:56;;;;;;;7.95;4.50;;;;;;;;;;5069840;28;20020;-83
2021/07/12 06:58:22;;;;;;;8.45;5.18;;;;;;;;;;5068556;28;20040;-82
2021/07/12 07:00:48;;;;;;;6.75;4.57;;;;;;;;;;5068970;28;20029;-83
2021/07/12 07:03:14;;;;;;;10.82;5.15;;;;;;;;;;5068660;28;20045;-83
2021/07/12 07:05:40;;;;;;;7.50;4.28;;;;;;;;;;5069276;28;20031;-83
2021/07/12 07:08:06;;;;;;;9.90;4.50;;;;;;;;;;5070512;28;20085;-83
2021/07/12 07:10:32;;;;;;;10.55;4.72;;;;;;;;;;5068167;28;20021;-83
2021/07/12 07:12:59;;;;;;;10.18;4.60;;;;;;;;;;5069225;28;20459;-82
2021/07/12 07:15:25;;;;;;;7.35;4.35;;;;;;;;;;5068725;28;20052;-83
2021/07/12 07:17:52;;;;;;;5.28;4.15;;;;;;;;;;5071178;28;20390;-83
2021/07/12 07:20:18;;;;;;;;;;;;;;;;;;5072095;28;20033;-83
2021/07/12 07:22:44;;;;;;;10.07;4.73;;;;;;;;;;5071433;28;19919;-84
2021/07/12 07:25:11;;;;;;;7.15;4.20;;;;;;;;;;5071276;28;20151;-84
2021/07/12 07:27:37;;;;;;;;;;;;;;;;;;5073539;28;20017;-83
2021/07/12 07:30:03;;;;;;;10.87;4.50;;;;;;;;;;5071874;28;19922;-82
2021/07/12 07:32:29;;;;;;;12.70;4.53;;;;;;;;;;5071713;28;20098;-84
2021/07/12 07:34:55;;;;;;;16.83;4.80;;;;;;;;;;5072854;28;20024;-83
2021/07/12 07:37:21;;;;;;;18.40;6.38;;;;;;;;;;5072634;28;20473;-84
2021/07/12 07:39:48;;;;;;;21.92;5.90;;;;;;;;;;5072121;28;20032;-83
2021/07/12 07:42:14;;;;;;;9.97;4.47;;;;;;;;;;5073853;28;20111;-82
2021/07/12 07:44:40;;;;;;;8.73;4.32;;;;;;;;;;5073118;28;20546;-82
2021/07/12 07:47:06;;;;;;;13.70;4.32;;;;;;;;;;5072495;28;20025;-84
2021/07/12 07:49:32;;;;;;;14.83;4.37;;;;;;;;;;5073612;28;20496;-83
2021/07/12 07:51:58;;;;;;;7.90;4.10;;;;;;;;;;5074036;28;20043;-83
2021/07/12 07:54:24;;;;;;;13.68;4.22;;;;;;;;;;5073698;28;20024;-83
2021/07/12 07:56:51;;;;;;;7.70;4.95;;;;;;;;;;5075132;28;20028;-83
2021/07/12 07:59:17;;;;;;;8.10;4.25;;;;;;;;;;5076294;28;20067;-82
2021/07/12 08:01:43;;;;;;;6.95;4.22;;;;;;;;;;5076438;28;20040;-83
2021/07/12 08:04:09;;;;;;;6.72;4.00;;;;;;;;;;5072173;28;20320;-83
2021/07/12 08:06:35;;;;;;;5.35;3.83;;;;;;;;;;5072857;28;20104;-83
2021/07/12 08:09:02;;;;;;;6.88;4.47;;;;;;;;;;5072509;28;20104;-82
2021/07/12 08:11:28;;;;;;;5.77;4.03;;;;;;;;;;5071164;28;20032;-82
2021/07/12 08:13:53;;;;;;;11.20;4.57;;;;;;;;;;5071753;28;20332;-83
2021/07/12 08:16:19;;;;;;;10.85;4.20;;;;;;;;;;5074410;28;20032;-82
2021/07/12 08:18:46;;;;;;;7.97;4.57;;;;;;;;;;5074454;28;20111;-82
2021/07/12 08:21:12;;;;;;;4.90;3.80;;;;;;;;;;5072129;28;20024;-82
2021/07/12 08:23:41;;;;;;;5.35;3.92;;;;;;;;;;5073104;28;20067;-82
2021/07/12 08:26:07;;;;;;;13.98;4.22;;;;;;;;;;5071347;28;20051;-84
2021/07/12 08:28:33;;;;;;;7.32;4.47;;;;;;;;;;5071720;28;20482;-83
2021/07/12 08:30:59;;;;;;;5.95;4.03;;;;;;;;;;5072574;28;20402;-82
2021/07/12 08:33:25;;;;;;;9.52;4.20;;;;;;;;;;5070809;28;20032;-82
2021/07/12 08:35:51;;;;;;;10.02;5.00;;;;;;;;;;5070707;28;20024;-83
2021/07/12 08:38:17;;;;;;;7.40;4.10;;;;;;;;;;5071410;28;20439;-83
2021/07/12 08:40:43;;;;;;;6.03;3.80;;;;;;;;;;5072532;28;20073;-82
2021/07/12 08:43:11;;;;;;;10.27;3.80;;;;;;;;;;5073465;28;20056;-83
2021/07/12 08:45:37;;;;;;;6.85;5.00;;;;;;;;;;5072212;28;20046;-82
2021/07/12 08:48:05;;;;;;;6.13;4.10;;;;;;;;;;5072039;28;20016;-83
2021/07/12 08:50:31;;;;;;;7.43;4.30;;;;;;;;;;5071969;28;20020;-83
2021/07/12 08:52:57;;;;;;;6.93;4.53;;;;;;;;;;5071646;28;20101;-83
2021/07/12 08:55:23;;;;;;;7.43;4.23;;;;;;;;;;5071328;28;20379;-82
2021/07/12 08:57:57;;;;;;;7.97;4.28;;;;;;;;;;5072063;28;20411;-82
2021/07/12 09:00:35;;;;;;;7.53;4.45;;;;;;;;;;5071629;28;20486;-82
2021/07/12 09:03:18;;;;;;;11.02;4.75;;;;;;;;;;5071264;28;20044;-82
2021/07/12 09:05:53;;;;;;;8.00;4.72;;;;;;;;;;5072763;28;20543;-83
2021/07/12 09:08:34;;;;;;;5.38;4.35;;;;;;;;;;5071673;28;20526;-82
2021/07/12 09:11:04;;;;;;;11.60;4.85;;;;;;;;;;5071852;28;20035;-81
2021/07/12 09:13:57;;;;;;;10.15;5.63;;;;;;;;;;5071762;28;20455;-82
2021/07/12 09:16:35;;;;;;;7.03;4.65;;;;;;;;;;5047936;28;20115;-83
2021/07/12 09:19:24;;;;;;;8.23;4.70;;;;;;;;;;5072832;28;20123;-82
2021/07/12 09:21:58;;;;;;;9.32;4.80;;;;;;;;;;5066899;28;20043;-83
2021/07/12 09:24:35;;;;;;;10.45;4.88;;;;;;;;;;5072177;28;20045;-82
2021/07/12 09:27:03;;;;;;;6.85;4.80;;;;;;;;;;5071414;28;20051;-83
2021/07/12 09:29:31;;;;;;;11.50;4.93;;;;;;;;;;5072767;28;20492;-82
2021/07/12 09:31:57;;;;;;;7.82;5.35;;;;;;;;;;5076084;28;20048;-83
2021/07/12 09:34:23;;;;;;;8.95;4.68;;;;;;;;;;5071005;28;20044;-82
2021/07/12 09:36:50;;;;;;;6.10;4.38;;;;;;;;;;5070840;28;20035;-83
2021/07/12 09:39:16;;;;;;;;;;;;;;;;;;5070596;28;20028;-83
2021/07/12 09:41:42;;;;;;;9.18;5.75;;;;;;;;;;5070683;28;19962;-83
2021/07/12 09:44:08;;;;;;;6.80;4.68;;;;;;;;;;5070385;28;20127;-83
2021/07/12 09:46:34;;;;;;;10.37;5.00;;;;;;;;;;5070874;28;20051;-83
2021/07/12 09:49:07;;;;;;;11.80;5.10;;;;;;;;;;5071846;28;20063;-83
2021/07/12 09:51:34;;;;;;;9.27;5.05;;;;;;;;;;5071689;28;20024;-82
2021/07/12 09:54:19;;;;;;;11.52;5.50;;;;;;;;;;5070892;28;20049;-82
2021/07/12 09:56:49;;;;;;;8.32;5.30;;;;;;;;;;5071354;28;20025;-83
2021/07/12 09:59:16;;;;;;;7.55;5.10;;;;;;;;;;5071265;28;20074;-82
2021/07/12 10:02:00;;;;;;;8.50;4.90;;;;;;;;;;5070466;28;20048;-82
2021/07/12 10:04:26;;;;;;;11.95;5.35;;;;;;;;;;5070861;28;20044;-83
2021/07/12 10:06:54;;;;;;;7.82;5.15;;;;;;;;;;5069443;28;20126;-83
2021/07/12 10:09:24;;;;;;;12.73;6.07;;;;;;;;;;5070754;28;20540;-82
2021/07/12 10:11:51;;;;;;;13.50;5.72;;;;;;;;;;5072121;28;20547;-83
2021/07/12 10:14:18;;;;;;;9.55;5.60;;;;;;;;;;5070420;28;20040;-83
2021/07/12 10:16:44;;;;;;;10.60;4.95;;;;;;;;;;5070256;28;20027;-83
2021/07/12 10:19:10;;;;;;;8.18;4.95;;;;;;;;;;5070546;28;20025;-83
2021/07/12 10:21:37;;;;;;;12.37;5.40;;;;;;;;;;5070724;28;20028;-83
2021/07/12 10:24:03;;;;;;;12.75;5.47;;;;;;;;;;5070103;28;20305;-83
2021/07/12 10:26:47;;;;;;;7.65;5.18;;;;;;;;;;5070160;28;20016;-83
2021/07/12 10:29:15;;;;;;;7.18;4.90;;;;;;;;;;5070701;28;20077;-83
2021/07/12 10:31:56;;;;;;;11.65;5.50;;;;;;;;;;5070895;28;20096;-83
2021/07/12 10:34:37;;;;;;;11.60;5.43;;;;;;;;;;5069931;28;20044;-83
2021/07/12 10:37:04;;;;;;;12.60;6.07;;;;;;;;;;5070310;28;20064;-82
2021/07/12 10:39:48;;;;;;;9.50;5.47;;;;;;;;;;5070907;28;20432;-83
2021/07/12 10:42:34;;;;;;;13.05;6.22;;;;;;;;;;5071544;28;20503;-82
2021/07/12 10:45:22;;;;;;;10.30;5.55;;;;;;;;;;5070274;28;20045;-82
2021/07/12 10:47:50;;;;;;;10.38;5.88;;;;;;;;;;5070590;28;20024;-83
2021/07/12 10:50:34;;;;;;;10.32;5.95;;;;;;;;;;5071216;28;20104;-83
2021/07/12 10:53:00;;;;;;;10.95;6.10;;;;;;;;;;5073053;28;20393;-82
2021/07/12 10:55:31;;;;;;;9.93;5.95;;;;;;;;;;5075219;28;20372;-82
2021/07/12 10:58:29;;;;;;;11.35;6.47;;;;;;;;;;5074726;28;20040;-82
2021/07/12 11:00:58;;;;;;;19.23;12.40;;;;;;;;;;5052337;28;20028;-82
2021/07/12 11:03:33;;;;;;;11.18;6.68;;;;;;;;;;5074349;28;20060;-83
2021/07/12 11:05:59;;;;;;;9.68;6.50;;;;;;;;;;5075601;28;20036;-82
2021/07/12 11:08:45;;;;;;;8.82;6.32;;;;;;;;;;5074268;28;20115;-82
2021/07/12 11:11:31;;;;;;;32.03;6.97;;;;;;;;;;5074765;28;20020;-83
2021/07/12 11:14:05;;;;;;;10.60;6.78;;;;;;;;;;5074378;28;20073;-83
2021/07/12 11:16:42;;;;;;;11.95;6.20;;;;;;;;;;5079972;28;20032;-83
2021/07/12 11:19:24;;;;;;;11.73;7.25;;;;;;;;;;5077868;28;20028;-83
2021/07/12 11:21:51;;;;;;;9.68;6.22;;;;;;;;;;5072652;28;20020;-83
2021/07/12 11:24:24;;;;;;;11.07;6.80;;;;;;;;;;5073252;28;20074;-82
2021/07/12 11:26:52;;;;;;;11.68;6.13;;;;;;;;;;5074995;28;20028;-82
2021/07/12 11:29:28;;;;;;;9.27;5.80;;;;;;;;;;5074087;28;20021;-83
2021/07/12 11:31:54;;;;;;;;;;;;;;;;;;5073937;28;20488;-83
2021/07/12 11:34:27;;;;;;;9.32;6.05;;;;;;;;;;5073433;28;19904;-82
2021/07/12 11:36:53;;;;;;;12.68;6.75;;;;;;;;;;5072568;28;20440;-83
2021/07/12 11:39:20;;;;;;;8.93;5.50;;;;;;;;;;5073804;28;20028;-82
2021/07/12 11:41:46;;;;;;;10.60;6.13;;;;;;;;;;5073458;28;20021;-83
2021/07/12 11:44:14;;;;;;;9.50;6.18;;;;;;;;;;5072843;28;20036;-83
2021/07/12 11:46:40;;;;;;;13.50;6.38;;;;;;;;;;5072514;28;20382;-83
2021/07/12 11:49:06;;;;;;;;;;;;;;;;;;5074153;28;20090;-84
2021/07/12 11:51:33;;;;;;;13.23;6.43;;;;;;;;;;5072750;28;19904;-83
2021/07/12 11:53:59;;;;;;;11.65;6.55;;;;;;;;;;5074086;28;20398;-83
2021/07/12 11:56:25;;;;;;;10.30;6.90;;;;;;;;;;5073491;28;20140;-83
2021/07/12 11:58:57;;;;;;;14.18;7.03;;;;;;;;;;5074051;28;20045;-83
2021/07/12 12:01:23;;;;;;;13.57;6.90;;;;;;;;;;5073655;28;20401;-83
2021/07/12 12:03:59;;;;;;;9.50;7.07;;;;;;;;;;5073441;28;20040;-83
2021/07/12 12:06:25;;;;;;;10.77;7.15;;;;;;;;;;5072510;28;20067;-82
2021/07/12 12:09:01;;;;;;;14.10;6.97;;;;;;;;;;5076080;28;20040;-82
2021/07/12 12:11:31;;;;;;;10.45;6.72;;;;;;;;;;5075933;28;20173;-82
2021/07/12 12:13:57;;;;;;;13.73;6.75;;;;;;;;;;5075331;28;20039;-83
2021/07/12 12:16:25;;;;;;;11.43;7.20;;;;;;;;;;5074520;28;20033;-82
2021/07/12 12:18:52;;;;;;;15.02;8.25;;;;;;;;;;5074402;28;20047;-82
2021/07/12 12:21:19;;;;;;;10.95;7.72;;;;;;;;;;5074255;28;20017;-83
2021/07/12 12:23:45;;;;;;;11.90;7.10;;;;;;;;;;5073299;28;20037;-82
2021/07/12 12:26:22;;;;;;;13.50;7.53;;;;;;;;;;5073153;28;20047;-82
2021/07/12 12:28:56;;;;;;;13.23;7.50;;;;;;;;;;5072928;28;20016;-83
2021/07/12 12:31:27;;;;;;;12.50;6.93;;;;;;;;;;5076144;28;20029;-82
2021/07/12 12:34:18;;;;;;;13.35;6.85;;;;;;;;;;5078966;28;20054;-83
2021/07/12 12:36:44;;;;;;;12.65;6.85;;;;;;;;;;5076146;28;20368;-82
2021/07/12 12:39:10;;;;;;;;;;;;;;;;;;5074587;28;20028;-83
2021/07/12 12:41:39;;;;;;;17.63;6.95;;;;;;;;;;5073590;28;19995;-82
2021/07/12 12:44:05;;;;;;;13.13;7.50;;;;;;;;;;5073198;28;20036;-82
2021/07/12 12:46:32;;;;;;;14.02;8.40;;;;;;;;;;5071570;28;20069;-83
2021/07/12 12:48:58;;;;;;;;;;;;;;;;;;5072189;28;20375;-82
2021/07/12 12:51:34;;;;;;;18.95;8.90;;;;;;;;;;5073948;28;19908;-83
2021/07/12 12:54:00;;;;;;;16.95;8.65;;;;;;;;;;5071840;28;20117;-82
2021/07/12 12:56:26;;;;;;;24.48;8.43;;;;;;;;;;5072445;28;20432;-83
2021/07/12 12:58:52;;;;;;;;;;;;;;;;;;5072454;28;20032;-83
2021/07/12 13:01:18;;;;;;;14.23;7.90;;;;;;;;;;5072127;28;19950;-83
2021/07/12 13:03:45;;;;;;;13.38;8.18;;;;;;;;;;5072375;28;20053;-83
2021/07/12 13:06:13;;;;;;;14.85;7.78;;;;;;;;;;5073186;28;20037;-82
2021/07/12 13:08:55;;;;;;;13.43;7.75;;;;;;;;;;5072642;28;20039;-83
2021/07/12 13:11:27;;;;;;;16.00;8.77;;;;;;;;;;5072370;28;20021;-83
2021/07/12 13:13:56;;;;;;;14.93;8.82;;;;;;;;;;5070996;28;20039;-82
2021/07/12 13:16:22;;;;;;;19.50;7.80;;;;;;;;;;5070404;28;20040;-82
2021/07/12 13:18:48;;;;;;;;;;;;;;;;;;5071484;28;20229;-83
2021/07/12 13:21:14;;;;;;;15.50;8.68;;;;;;;;;;5072359;28;19965;-83
2021/07/12 13:23:40;;;;;;;;;;;;;;;;;;5074616;28;20433;-82
2021/07/12 13:26:07;;;;;;;12.68;8.40;;;;;;;;;;5070952;28;19904;-82
2021/07/12 13:28:34;;;;;;;10.98;8.55;;;;;;;;;;5070894;28;20141;-81
2021/07/12 13:31:00;;;;;;;13.95;8.50;;;;;;;;;;5071975;28;20032;-82
2021/07/12 13:33:28;;;;;;;11.00;8.32;;;;;;;;;;5069697;28;20119;-82
2021/07/12 13:35:55;;;;;;;11.77;8.13;;;;;;;;;;5069395;28;20446;-82
2021/07/12 13:38:21;;;;;;;16.23;9.10;;;;;;;;;;5070720;28;20046;-82
2021/07/12 13:40:47;;;;;;;15.07;8.93;;;;;;;;;;5070461;28;20036;-81
2021/07/12 13:43:14;;;;;;;15.65;8.20;;;;;;;;;;5070681;28;20115;-82
2021/07/12 13:45:40;;;;;;;16.35;8.45;;;;;;;;;;5070393;28;20032;-82
2021/07/12 13:48:06;;;;;;;14.80;8.63;;;;;;;;;;5070207;28;20510;-83
2021/07/12 13:50:33;;;;;;;14.85;8.05;;;;;;;;;;5070217;28;20460;-82
2021/07/12 13:53:00;;;;;;;19.33;9.30;;;;;;;;;;5071309;28;20107;-82
2021/07/12 13:55:28;;;;;;;13.45;9.05;;;;;;;;;;5071144;28;20029;-83
2021/07/12 13:57:55;;;;;;;12.63;9.18;;;;;;;;;;5070393;28;20176;-82
2021/07/12 14:00:23;;;;;;;14.73;8.90;;;;;;;;;;5071062;28;20426;-82
2021/07/12 14:02:49;;;;;;;16.98;8.98;;;;;;;;;;5070527;28;20044;-83
2021/07/12 14:05:15;;;;;;;14.60;10.15;;;;;;;;;;5070665;28;20484;-83
2021/07/12 14:07:42;;;;;;;25.33;17.38;;;;;;;;;;5070476;28;20047;-82
2021/07/12 14:10:09;;;;;;;16.60;11.02;;;;;;;;;;5070349;28;20031;-82
2021/07/12 14:12:36;;;;;;;16.23;9.35;;;;;;;;;;5071074;28;20021;-83
2021/07/12 14:15:03;;;;;;;15.30;8.48;;;;;;;;;;5070032;28;20117;-82
2021/07/12 14:17:29;;;;;;;21.42;9.00;;;;;;;;;;5070493;28;20453;-83
2021/07/12 14:19:55;;;;;;;14.00;8.73;;;;;;;;;;5069454;28;20021;-82
2021/07/12 14:22:21;;;;;;;15.20;9.20;;;;;;;;;;5070460;28;20033;-82
2021/07/12 14:24:47;;;;;;;15.98;8.88;;;;;;;;;;5070398;28;20437;-83
2021/07/12 14:27:13;;;;;;;15.55;8.93;;;;;;;;;;5073771;28;20060;-83
2021/07/12 14:29:39;;;;;;;12.68;8.95;;;;;;;;;;5074706;28;20029;-83
2021/07/12 14:32:05;;;;;;;13.63;8.88;;;;;;;;;;5075086;28;20033;-83
2021/07/12 14:34:31;;;;;;;21.33;7.90;;;;;;;;;;5079383;28;20051;-83
2021/07/12 14:36:57;;;;;;;15.43;8.55;;;;;;;;;;5074153;28;20109;-83
2021/07/12 14:39:23;;;;;;;18.48;8.15;;;;;;;;;;5077462;28;20025;-83
2021/07/12 14:41:49;;;;;;;13.68;8.60;;;;;;;;;;5077155;28;20032;-82
2021/07/12 14:44:15;;;;;;;15.60;8.70;;;;;;;;;;5074217;28;20020;-83
2021/07/12 14:46:44;;;;;;;15.45;8.45;;;;;;;;;;5073813;28;20372;-82